Map

Track Data

SID SEASON NUMBER BASIN SUBBASIN NAME ISO_TIME NATURE LAT LON WMO_WIND WMO_PRES WMO_AGENCY TRACK_TYPE DIST2LAND LANDFALL IFLAG USA_AGENCY USA_ATCF_ID USA_LAT USA_LON USA_RECORD USA_STATUS USA_WIND USA_PRES USA_SSHS USA_R34_NE USA_R34_SE USA_R34_SW USA_R34_NW USA_R50_NE USA_R50_SE USA_R50_SW USA_R50_NW USA_R64_NE USA_R64_SE USA_R64_SW USA_R64_NW USA_POCI USA_ROCI USA_RMW USA_EYE TOKYO_LAT TOKYO_LON TOKYO_GRADE TOKYO_WIND TOKYO_PRES TOKYO_R50_DIR TOKYO_R50_LONG TOKYO_R50_SHORT TOKYO_R30_DIR TOKYO_R30_LONG TOKYO_R30_SHORT TOKYO_LAND CMA_LAT CMA_LON CMA_CAT CMA_WIND CMA_PRES HKO_LAT HKO_LON HKO_CAT HKO_WIND HKO_PRES NEWDELHI_LAT NEWDELHI_LON NEWDELHI_GRADE NEWDELHI_WIND NEWDELHI_PRES NEWDELHI_CI NEWDELHI_DP NEWDELHI_POCI REUNION_LAT REUNION_LON REUNION_TYPE REUNION_WIND REUNION_PRES REUNION_TNUM REUNION_CI REUNION_RMW REUNION_R34_NE REUNION_R34_SE REUNION_R34_SW REUNION_R34_NW REUNION_R50_NE REUNION_R50_SE REUNION_R50_SW REUNION_R50_NW REUNION_R64_NE REUNION_R64_SE REUNION_R64_SW REUNION_R64_NW BOM_LAT BOM_LON BOM_TYPE BOM_WIND BOM_PRES BOM_TNUM BOM_CI BOM_RMW BOM_R34_NE BOM_R34_SE BOM_R34_SW BOM_R34_NW BOM_R50_NE BOM_R50_SE BOM_R50_SW BOM_R50_NW BOM_R64_NE BOM_R64_SE BOM_R64_SW BOM_R64_NW BOM_ROCI BOM_POCI BOM_EYE BOM_POS_METHOD BOM_PRES_METHOD NADI_LAT NADI_LON NADI_CAT NADI_WIND NADI_PRES WELLINGTON_LAT WELLINGTON_LON WELLINGTON_WIND WELLINGTON_PRES DS824_LAT DS824_LON DS824_STAGE DS824_WIND DS824_PRES TD9636_LAT TD9636_LON TD9636_STAGE TD9636_WIND TD9636_PRES TD9635_LAT TD9635_LON TD9635_WIND TD9635_PRES TD9635_ROCI NEUMANN_LAT NEUMANN_LON NEUMANN_CLASS NEUMANN_WIND NEUMANN_PRES MLC_LAT MLC_LON MLC_CLASS MLC_WIND MLC_PRES USA_GUST BOM_GUST BOM_GUST_PER REUNION_GUST REUNION_GUST_PER USA_SEAHGT USA_SEARAD_NE USA_SEARAD_SE USA_SEARAD_SW USA_SEARAD_NW STORM_SPEED STORM_DIR
1885312N17301 1885 52 NA NA NOT_NAMED 1885-11-08 00:00:00 TS 17.0000 -58.7000 main 743 671 _____________O -1 17.0000 -58.7000 TD 25 15 311
1885312N17301 1885 52 NA NA NOT_NAMED 1885-11-08 03:00:00 TS 17.5005 -59.3118 main 671 602 _____________P -1 17.5005 -59.3118 TD 27 15 311
1885312N17301 1885 52 NA NA NOT_NAMED 1885-11-08 06:00:00 TS 18.0000 -59.9000 main 602 548 _____________O -1 18.0000 -59.9000 TD 30 15 313
1885312N17301 1885 52 NA NA NOT_NAMED 1885-11-08 09:00:00 TS 18.4997 -60.4505 main 538 489 _____________P -1 18.4997 -60.4505 TD 32 15 314
1885312N17301 1885 52 NA NA NOT_NAMED 1885-11-08 12:00:00 TS 19.0000 -61.0000 main 489 438 _____________O -1 19.0000 -61.0000 TS 35 15 313
1885312N17301 1885 52 NA NA NOT_NAMED 1885-11-08 15:00:00 TS 19.4999 -61.6002 main 438 399 _____________P -1 19.4999 -61.6002 TS 35 15 311
1885312N17301 1885 52 NA NA NOT_NAMED 1885-11-08 18:00:00 TS 20.0000 -62.2000 main 399 377 _____________O -1 20.0000 -62.2000 TS 35 15 313
1885312N17301 1885 52 NA NA NOT_NAMED 1885-11-08 21:00:00 TS 20.4998 -62.7579 main 375 374 _____________P -1 20.4998 -62.7579 TS 37 14 314
1885312N17301 1885 52 NA NA NOT_NAMED 1885-11-09 00:00:00 TS 21.0000 -63.3000 main 377 373 _____________O -1 21.0000 -63.3000 TS 40 14 314
1885312N17301 1885 52 NA NA NOT_NAMED 1885-11-09 03:00:00 TS 21.4998 -63.8504 main 389 389 _____________P -1 21.4998 -63.8504 TS 40 14 314
1885312N17301 1885 52 NA NA NOT_NAMED 1885-11-09 06:00:00 TS 22.0000 -64.4000 main 421 421 _____________O -1 22.0000 -64.4000 TS 40 15 314
1885312N17301 1885 52 NA NA NOT_NAMED 1885-11-09 09:00:00 TS 22.5227 -65.0021 main 462 462 _____________P -1 22.5227 -65.0021 TS 42 14 315
1885312N17301 1885 52 NA NA NOT_NAMED 1885-11-09 12:00:00 TS 23.0000 -65.5000 main 514 514 _____________O -1 23.0000 -65.5000 TS 45 11 321
1885312N17301 1885 52 NA NA NOT_NAMED 1885-11-09 15:00:00 TS 23.3796 -65.7532 main 559 559 _____________P -1 23.3796 -65.7532 TS 45 8 332
1885312N17301 1885 52 NA NA NOT_NAMED 1885-11-09 18:00:00 TS 23.7000 -65.9000 main 592 592 _____________O -1 23.7000 -65.9000 TS 45 7 333
1885312N17301 1885 52 NA NA NOT_NAMED 1885-11-09 21:00:00 TS 24.0075 -66.1001 main 620 620 _____________P -1 24.0075 -66.1001 TS 42 7 329
1885312N17301 1885 52 NA NA NOT_NAMED 1885-11-10 00:00:00 TS 24.3000 -66.3000 main 638 638 _____________O -1 24.3000 -66.3000 TS 40 7 328
1885312N17301 1885 52 NA NA NOT_NAMED 1885-11-10 03:00:00 TS 24.6000 -66.5075 main 659 659 _____________P -1 24.6000 -66.5075 TS 37 7 329
1885312N17301 1885 52 NA NA NOT_NAMED 1885-11-10 06:00:00 TS 24.9000 -66.7000 main 680 676 _____________O -1 24.9000 -66.7000 TS 35 6 323
1885312N17301 1885 52 NA NA NOT_NAMED 1885-11-10 09:00:00 TS 25.0950 -66.9168 main 692 692 _____________P -1 25.0950 -66.9168 TS 35 7 336
1885312N17301 1885 52 NA NA NOT_NAMED 1885-11-10 12:00:00 TS 25.5000 -67.0000 main 727 727 _____________O -1 25.5000 -67.0000 TS 35 13 4
1885312N17301 1885 52 NA NA NOT_NAMED 1885-11-10 15:00:00 TS 26.3603 -66.8297 main 827 827 _____________P -1 26.3603 -66.8297 TS 32 21 13
1885312N17301 1885 52 NA NA NOT_NAMED 1885-11-10 18:00:00 TS 27.5000 -66.5000 main 952 _____________O -1 27.5000 -66.5000 TD 30 24 14

About IBTrACS Database

This database is a web-friendly format of International Best Track Archive for Climate Stewardship (IBTrACS), a global best track data archive curated by NOAA dating back to 1842.

Updated: 2021-12-01